Time;durP1;ratioP1;P1;durP2;ratioP2;P2;SDS_P1;SDS_P2;PMS_P1;PMS_P2;Temp;Humidity;BMP_temperature;BMP_pressure;BME280_temperature;BME280_humidity;BME280_pressure;Samples;Min_cycle;Max_cycle;Signal;HPM_P1;HPM_P2
2023/03/03 03:02:38;;;;;;;51.03;35.57;;;2.10;99.90;;;;;;5055459;23;20493;-82
2023/03/03 03:05:07;;;;;;;50.77;35.00;;;2.10;99.90;;;;;;4971379;28;20301;-79
2023/03/03 03:07:34;;;;;;;54.03;37.10;;;2.20;99.90;;;;;;4974135;28;20222;-79
2023/03/03 03:10:02;;;;;;;52.10;36.43;;;2.20;99.90;;;;;;4973495;28;20273;-79
2023/03/03 03:12:32;;;;;;;46.60;34.33;;;2.30;99.90;;;;;;4972619;28;20249;-79
2023/03/03 03:15:01;;;;;;;57.13;37.70;;;2.30;99.90;;;;;;4973580;28;20514;-79
2023/03/03 03:17:27;;;;;;;52.43;36.03;;;2.30;99.90;;;;;;4972720;28;20205;-80
2023/03/03 03:19:56;;;;;;;45.80;34.43;;;2.30;99.90;;;;;;4969963;28;20221;-79
2023/03/03 03:22:23;;;;;;;49.73;34.27;;;2.40;99.90;;;;;;4974686;28;20650;-79
2023/03/03 03:24:50;;;;;;;50.23;36.00;;;2.40;99.90;;;;;;4973172;28;20743;-79
2023/03/03 03:27:18;;;;;;;45.73;33.47;;;2.40;99.90;;;;;;4973533;28;20198;-79
2023/03/03 03:29:45;;;;;;;49.13;34.03;;;2.40;99.90;;;;;;4965171;28;20442;-79
2023/03/03 03:32:13;;;;;;;50.80;35.20;;;2.40;99.90;;;;;;4974023;28;20253;-80
2023/03/03 03:34:39;;;;;;;51.33;34.90;;;2.40;99.90;;;;;;4965934;28;20679;-79
2023/03/03 03:37:09;;;;;;;50.93;34.90;;;2.40;99.90;;;;;;4974070;28;20485;-80
2023/03/03 03:39:37;;;;;;;48.63;34.97;;;2.40;99.90;;;;;;4967716;28;20473;-79
2023/03/03 03:42:04;;;;;;;55.37;36.43;;;2.40;99.90;;;;;;4973826;28;20232;-79
2023/03/03 03:44:31;;;;;;;49.53;34.97;;;2.40;99.90;;;;;;4973944;28;20194;-79
2023/03/03 03:46:58;;;;;;;46.93;35.50;;;2.40;99.90;;;;;;4972861;28;20202;-80
2023/03/03 03:49:26;;;;;;;48.43;36.30;;;2.40;99.90;;;;;;4974293;28;20213;-79
2023/03/03 03:51:55;;;;;;;48.03;35.50;;;2.40;99.90;;;;;;4976413;28;20285;-83
2023/03/03 03:54:27;;;;;;;46.23;34.60;;;2.50;99.90;;;;;;4978829;28;20553;-80
2023/03/03 03:56:54;;;;;;;52.83;35.57;;;2.50;99.90;;;;;;4975339;28;20202;-82
2023/03/03 03:59:22;;;;;;;48.73;35.03;;;2.40;99.90;;;;;;4974832;28;20543;-81
2023/03/03 04:01:49;;;;;;;47.17;34.70;;;2.50;99.90;;;;;;4976352;28;20229;-82
2023/03/03 04:04:16;;;;;;;49.97;35.87;;;2.40;99.90;;;;;;4976317;28;20208;-82
2023/03/03 04:06:43;;;;;;;48.60;36.80;;;2.40;99.90;;;;;;4977213;28;20206;-81
2023/03/03 04:09:11;;;;;;;50.63;37.23;;;2.40;99.90;;;;;;4981343;28;20473;-83
2023/03/03 04:11:39;;;;;;;51.97;36.47;;;2.40;99.90;;;;;;4978402;28;20226;-83
2023/03/03 04:14:07;;;;;;;54.47;37.63;;;2.40;99.90;;;;;;4976378;28;20289;-84
2023/03/03 04:16:36;;;;;;;47.33;34.53;;;2.40;99.90;;;;;;4978877;28;20816;-84
2023/03/03 04:19:03;;;;;;;43.17;32.97;;;2.40;99.90;;;;;;4975561;28;20202;-83
2023/03/03 04:21:32;;;;;;;51.17;35.73;;;2.40;99.90;;;;;;4974462;28;20225;-81
2023/03/03 04:24:00;;;;;;;50.27;35.90;;;2.30;99.90;;;;;;4977766;28;20206;-82
2023/03/03 04:26:29;;;;;;;44.90;33.00;;;2.40;99.90;;;;;;4976543;28;20208;-84
2023/03/03 04:28:58;;;;;;;51.67;36.17;;;2.40;99.90;;;;;;4977939;28;20205;-84
2023/03/03 04:31:26;;;;;;;56.50;37.27;;;2.40;99.90;;;;;;4978818;28;20210;-82
2023/03/03 04:33:54;;;;;;;50.50;35.63;;;2.40;99.90;;;;;;4976478;28;20206;-81
2023/03/03 04:36:23;;;;;;;50.00;35.60;;;2.40;99.90;;;;;;4980762;28;20208;-82
2023/03/03 04:38:50;;;;;;;47.40;34.70;;;2.40;99.90;;;;;;4979379;28;20205;-82
2023/03/03 04:41:17;;;;;;;47.53;34.63;;;2.50;99.90;;;;;;4975258;28;20229;-77
2023/03/03 04:43:45;;;;;;;46.83;35.03;;;2.50;99.90;;;;;;4972720;28;20198;-77
2023/03/03 04:46:14;;;;;;;45.57;34.90;;;2.50;99.90;;;;;;4972372;28;20210;-77
2023/03/03 04:48:41;;;;;;;45.23;34.30;;;2.50;99.90;;;;;;4971959;28;20285;-79
2023/03/03 04:51:09;;;;;;;45.73;33.73;;;2.60;99.90;;;;;;4977661;28;20309;-79
2023/03/03 04:53:37;;;;;;;46.73;34.53;;;2.60;99.90;;;;;;4978560;28;20613;-78
2023/03/03 04:56:06;;;;;;;44.07;32.33;;;2.60;99.90;;;;;;4971883;28;20281;-78
2023/03/03 04:58:33;;;;;;;47.37;33.87;;;2.60;99.90;;;;;;4989630;28;20222;-77
2023/03/03 05:01:01;;;;;;;48.43;35.57;;;2.60;99.90;;;;;;4977347;28;20257;-77
2023/03/03 05:03:31;;;;;;;47.83;34.40;;;2.70;99.90;;;;;;4971297;28;20688;-78
2023/03/03 05:05:59;;;;;;;45.07;32.80;;;2.70;99.90;;;;;;4977849;28;20225;-79
2023/03/03 05:08:26;;;;;;;49.93;35.83;;;2.70;99.90;;;;;;4973280;28;20258;-78
2023/03/03 05:10:53;;;;;;;48.97;33.47;;;2.70;99.90;;;;;;4979496;28;20563;-78
2023/03/03 05:13:20;;;;;;;48.60;35.10;;;2.70;99.90;;;;;;4978018;28;20209;-78
2023/03/03 05:15:50;;;;;;;48.07;34.83;;;2.60;99.90;;;;;;4978948;28;20236;-79
2023/03/03 05:18:18;;;;;;;50.13;37.50;;;2.60;99.90;;;;;;4979054;28;20206;-79
2023/03/03 05:20:46;;;;;;;54.50;36.77;;;2.60;99.90;;;;;;4978606;28;20226;-78
2023/03/03 05:23:13;;;;;;;47.23;34.27;;;2.60;99.90;;;;;;4977909;28;20632;-78
2023/03/03 05:25:41;;;;;;;45.10;34.80;;;2.60;99.90;;;;;;4976419;28;20212;-79
2023/03/03 05:28:08;;;;;;;44.90;35.13;;;2.60;99.90;;;;;;4978452;28;20198;-78
2023/03/03 05:30:35;;;;;;;53.60;36.47;;;2.60;99.90;;;;;;4969453;28;20560;-81
2023/03/03 05:33:02;;;;;;;46.37;34.87;;;2.60;99.90;;;;;;4977647;28;20190;-80
2023/03/03 05:35:29;;;;;;;52.87;36.53;;;2.70;99.90;;;;;;4975711;28;20288;-81
2023/03/03 05:37:57;;;;;;;50.97;36.70;;;2.70;99.90;;;;;;4978887;28;20194;-78
2023/03/03 05:40:25;;;;;;;51.80;37.27;;;2.60;99.90;;;;;;4976646;28;20304;-78
2023/03/03 05:42:52;;;;;;;49.23;34.43;;;2.60;99.90;;;;;;4978482;28;20233;-79
2023/03/03 05:45:20;;;;;;;52.07;35.93;;;2.60;99.90;;;;;;4972693;28;20590;-79
2023/03/03 05:47:47;;;;;;;48.97;36.17;;;2.60;99.90;;;;;;4978785;28;20202;-78
2023/03/03 05:50:13;;;;;;;52.37;37.37;;;2.60;99.90;;;;;;4978741;28;20232;-79
2023/03/03 05:52:40;;;;;;;48.33;35.00;;;2.60;99.90;;;;;;4977218;28;20248;-79
2023/03/03 05:55:10;;;;;;;51.03;35.33;;;2.60;99.90;;;;;;4978268;28;20202;-79
2023/03/03 05:57:36;;;;;;;44.10;34.17;;;2.60;99.90;;;;;;4978563;28;20206;-78
2023/03/03 06:00:04;;;;;;;45.50;33.57;;;2.60;99.90;;;;;;4977955;28;20257;-78
2023/03/03 06:02:38;;;;;;;47.90;35.00;;;2.70;99.90;;;;;;4979175;28;20253;-80
2023/03/03 06:05:06;;;;;;;46.97;35.03;;;2.60;99.90;;;;;;4977617;28;20216;-78
2023/03/03 06:07:33;;;;;;;52.13;35.73;;;2.60;99.90;;;;;;4978467;28;20540;-78
2023/03/03 06:10:00;;;;;;;57.63;38.00;;;2.60;99.90;;;;;;4981259;28;20579;-78
2023/03/03 06:12:31;;;;;;;51.67;38.23;;;2.70;99.90;;;;;;4977082;28;20224;-78
2023/03/03 06:14:58;;;;;;;49.30;36.67;;;2.70;99.90;;;;;;4977811;28;20190;-78
2023/03/03 06:17:24;;;;;;;49.00;34.73;;;2.70;99.90;;;;;;4975822;28;20210;-78
2023/03/03 06:19:51;;;;;;;45.37;34.37;;;2.70;99.90;;;;;;4976528;28;20217;-78
2023/03/03 06:22:18;;;;;;;47.87;35.37;;;2.80;99.90;;;;;;4976553;28;20230;-78
2023/03/03 06:24:45;;;;;;;43.30;32.30;;;2.80;99.90;;;;;;4976099;28;20200;-78
2023/03/03 06:27:12;;;;;;;41.00;32.83;;;2.70;99.90;;;;;;4975106;28;20273;-78
2023/03/03 06:29:40;;;;;;;46.20;34.67;;;2.80;99.90;;;;;;4979489;28;20194;-78
2023/03/03 06:32:07;;;;;;;47.07;35.93;;;2.90;99.90;;;;;;4976021;28;20225;-80
2023/03/03 06:34:34;;;;;;;51.40;35.57;;;2.90;99.90;;;;;;4979590;28;20202;-79
2023/03/03 06:37:01;;;;;;;48.77;35.67;;;2.90;99.90;;;;;;4978831;28;20261;-79
2023/03/03 06:39:28;;;;;;;46.30;34.47;;;2.90;99.90;;;;;;4979007;28;20206;-80
2023/03/03 06:41:55;;;;;;;45.63;34.73;;;3.00;99.90;;;;;;4971018;28;20272;-78
2023/03/03 06:44:21;;;;;;;44.07;34.10;;;3.00;99.90;;;;;;4980887;28;20198;-79
2023/03/03 06:46:50;;;;;;;50.43;35.37;;;3.00;99.90;;;;;;4978595;28;20229;-79
2023/03/03 06:49:17;;;;;;;49.10;35.47;;;3.10;99.90;;;;;;4978986;28;20201;-80
2023/03/03 06:51:45;;;;;;;44.13;33.27;;;3.10;99.90;;;;;;4980006;28;20210;-79
2023/03/03 06:54:13;;;;;;;40.70;31.83;;;3.20;99.90;;;;;;4980246;28;20198;-79
2023/03/03 06:56:41;;;;;;;47.40;35.10;;;3.30;99.90;;;;;;4980230;28;20269;-84
2023/03/03 06:59:13;;;;;;;43.23;33.30;;;3.30;99.90;;;;;;4981190;28;20202;-84
2023/03/03 07:01:40;;;;;;;44.27;33.43;;;3.40;99.90;;;;;;4983711;28;20226;-83
2023/03/03 07:04:16;;;;;;;49.33;33.97;;;3.40;99.90;;;;;;4982812;28;20205;-85
2023/03/03 07:06:43;;;;;;;43.20;34.43;;;3.40;99.90;;;;;;4980530;28;20201;-83
2023/03/03 07:09:19;;;;;;;44.30;33.60;;;3.40;99.90;;;;;;4977798;28;20301;-83
2023/03/03 07:11:46;;;;;;;46.07;33.53;;;3.40;99.90;;;;;;4976455;28;20210;-83
2023/03/03 07:14:17;;;;;;;48.27;35.33;;;3.50;99.90;;;;;;4979793;28;20210;-84
2023/03/03 07:16:43;;;;;;;45.73;33.73;;;3.50;99.90;;;;;;4985185;28;20269;-83
2023/03/03 07:19:19;;;;;;;48.03;35.00;;;3.40;99.90;;;;;;4982610;28;20202;-82
2023/03/03 07:21:46;;;;;;;41.03;32.37;;;3.50;99.90;;;;;;4975468;28;20585;-82
2023/03/03 07:24:24;;;;;;;47.23;34.80;;;3.60;99.90;;;;;;4969577;28;20249;-76
2023/03/03 07:26:51;;;;;;;43.67;33.70;;;3.60;99.90;;;;;;4972172;28;20198;-79
2023/03/03 07:29:24;;;;;;;46.47;33.90;;;3.60;99.90;;;;;;4971613;28;20217;-77
2023/03/03 07:31:51;;;;;;;48.23;34.23;;;3.70;99.90;;;;;;4973493;28;20218;-76
2023/03/03 07:34:23;;;;;;;44.73;34.47;;;3.70;99.90;;;;;;4973278;28;20197;-77
2023/03/03 07:36:50;;;;;;;46.60;34.30;;;3.80;99.90;;;;;;4972853;28;20206;-77
2023/03/03 07:39:31;;;;;;;47.00;33.57;;;3.80;99.90;;;;;;4973413;28;20202;-76
2023/03/03 07:42:11;;;;;;;47.60;34.37;;;3.90;99.90;;;;;;4972564;28;20225;-77
2023/03/03 07:44:38;;;;;;;41.80;32.07;;;4.00;99.90;;;;;;4973559;28;20189;-79
2023/03/03 07:47:19;;;;;;;40.53;32.17;;;4.00;99.90;;;;;;4971314;28;20202;-79
2023/03/03 07:49:48;;;;;;;45.10;32.70;;;4.10;99.90;;;;;;4973169;28;20190;-77
2023/03/03 07:52:27;;;;;;;41.53;31.07;;;4.10;99.90;;;;;;4971461;28;20213;-77
2023/03/03 07:54:56;;;;;;;44.93;32.77;;;4.10;99.90;;;;;;4972929;28;20618;-77
2023/03/03 07:57:26;;;;;;;45.43;32.70;;;4.20;99.90;;;;;;4972502;28;20660;-77
2023/03/03 07:59:59;;;;;;;40.63;31.47;;;4.20;99.90;;;;;;4973256;28;20202;-77
2023/03/03 08:02:41;;;;;;;45.53;34.90;;;4.30;99.90;;;;;;4972731;28;20225;-77
2023/03/03 08:05:29;;;;;;;43.30;32.87;;;4.30;99.90;;;;;;4971674;28;20206;-77
2023/03/03 08:08:12;;;;;;;42.30;31.40;;;4.40;99.90;;;;;;4972551;28;20246;-77
2023/03/03 08:10:44;;;;;;;43.27;34.17;;;4.50;99.90;;;;;;4972708;28;20202;-77
2023/03/03 08:13:17;;;;;;;44.90;33.83;;;4.50;99.90;;;;;;4973338;28;20595;-77
2023/03/03 08:15:46;;;;;;;43.10;34.33;;;4.60;99.90;;;;;;4971452;28;20632;-77
2023/03/03 08:18:23;;;;;;;42.33;32.53;;;4.70;99.90;;;;;;4971373;28;20704;-77
2023/03/03 08:20:54;;;;;;;42.63;32.20;;;4.90;99.90;;;;;;4972623;28;20222;-76
2023/03/03 08:23:22;;;;;;;44.67;33.07;;;5.00;99.90;;;;;;4971787;28;20203;-77
2023/03/03 08:25:50;;;;;;;44.40;33.47;;;5.10;99.90;;;;;;4968180;28;20208;-77
2023/03/03 08:28:17;;;;;;;45.33;34.97;;;5.20;99.90;;;;;;4972873;28;20227;-77
2023/03/03 08:30:45;;;;;;;45.60;34.60;;;5.30;99.90;;;;;;4973161;28;20228;-79
2023/03/03 08:33:12;;;;;;;41.43;33.37;;;5.30;99.90;;;;;;4974938;28;20207;-79
2023/03/03 08:35:39;;;;;;;42.10;32.90;;;5.40;99.90;;;;;;4975857;28;20262;-79
2023/03/03 08:38:08;;;;;;;45.93;33.37;;;5.60;99.90;;;;;;4976393;28;20200;-79
2023/03/03 08:40:35;;;;;;;38.90;30.77;;;5.70;99.90;;;;;;4975883;28;20289;-79
2023/03/03 08:43:03;;;;;;;39.97;30.53;;;5.80;99.90;;;;;;4974648;28;20224;-79
2023/03/03 08:45:31;;;;;;;42.00;32.93;;;5.90;99.90;;;;;;4974758;28;20583;-79
2023/03/03 08:47:59;;;;;;;43.10;32.83;;;6.00;99.90;;;;;;4974858;28;20267;-79
2023/03/03 08:50:26;;;;;;;43.53;33.60;;;6.00;99.90;;;;;;4976321;28;20204;-79
2023/03/03 08:52:53;;;;;;;40.00;32.20;;;6.00;99.90;;;;;;4975909;28;20231;-79
2023/03/03 08:55:38;;;;;;;43.90;33.83;;;6.10;99.90;;;;;;4974881;28;20252;-79
2023/03/03 08:58:05;;;;;;;44.10;32.47;;;6.20;99.90;;;;;;4972514;28;20593;-79
2023/03/03 09:00:33;;;;;;;46.83;32.97;;;6.30;99.90;;;;;;4968618;28;20209;-79
2023/03/03 09:03:00;;;;;;;39.77;30.40;;;6.40;99.90;;;;;;4974270;28;20251;-77
2023/03/03 09:05:27;;;;;;;39.23;30.20;;;6.50;99.90;;;;;;4975641;28;20200;-77
2023/03/03 09:07:55;;;;;;;39.27;32.40;;;6.60;99.90;;;;;;4974345;28;20201;-79
2023/03/03 09:10:28;;;;;;;43.03;32.57;;;6.70;99.90;;;;;;4976358;28;20738;-80
2023/03/03 09:12:57;;;;;;;43.30;32.57;;;6.70;99.90;;;;;;4986522;28;20201;-83
2023/03/03 09:15:25;;;;;;;39.27;31.97;;;6.90;99.90;;;;;;4976463;28;20205;-79
2023/03/03 09:17:53;;;;;;;40.27;31.63;;;7.30;99.90;;;;;;4979007;28;20202;-82
2023/03/03 09:20:30;;;;;;;40.03;31.30;;;7.60;99.90;;;;;;4980105;28;20686;-82
2023/03/03 09:22:58;;;;;;;53.57;35.33;;;7.60;99.90;;;;;;4977600;28;20276;-79
2023/03/03 09:25:32;;;;;;;41.87;33.73;;;7.50;99.90;;;;;;4972266;28;20642;-79
2023/03/03 09:28:00;;;;;;;44.87;32.80;;;7.60;99.90;;;;;;4972370;28;20676;-79
2023/03/03 09:40:46;;;;;;;41.90;32.73;;;7.70;99.90;;;;;;4976073;28;20582;-83
2023/03/03 09:47:16;;;;;;;39.87;29.60;;;7.70;99.90;;;;;;4971769;28;20205;-80
2023/03/03 09:49:58;;;;;;;37.33;30.00;;;7.70;99.90;;;;;;4976209;28;20201;-83
2023/03/03 09:52:41;;;;;;;36.17;29.20;;;7.70;99.90;;;;;;4990642;28;20228;-82
2023/03/03 09:58:56;;;;;;;35.57;29.77;;;8.00;99.90;;;;;;4975452;28;20205;-83
2023/03/03 10:01:58;;;;;;;35.10;29.13;;;8.10;99.90;;;;;;4975831;28;20279;-83
2023/03/03 10:05:00;;;;;;;43.37;30.73;;;8.20;99.90;;;;;;4974375;28;20205;-84
2023/03/03 10:07:48;;;;;;;37.60;29.77;;;8.30;99.90;;;;;;4942262;28;20205;-84
2023/03/03 10:11:06;;;;;;;35.73;29.03;;;8.20;99.90;;;;;;4975462;28;20300;-84
2023/03/03 10:14:20;;;;;;;43.23;30.33;;;8.20;99.90;;;;;;4973704;28;20225;-83
2023/03/03 10:17:35;;;;;;;42.87;31.63;;;8.00;99.90;;;;;;4974082;28;20267;-82
2023/03/03 10:20:30;;;;;;;41.80;31.17;;;7.70;99.90;;;;;;4977607;28;20753;-83
2023/03/03 10:23:08;;;;;;;44.00;31.13;;;7.90;99.90;;;;;;4961482;28;20241;-83
2023/03/03 10:25:45;;;;;;;35.83;30.03;;;8.10;99.90;;;;;;4972745;28;20280;-83
2023/03/03 10:28:40;;;;;;;35.50;29.30;;;8.20;99.90;;;;;;4974780;28;20722;-81
2023/03/03 10:31:24;;;;;;;43.55;32.10;;;8.40;99.90;;;;;;4973796;28;20450;-83
2023/03/03 10:34:03;;;;;;;42.27;32.03;;;8.20;99.90;;;;;;4973939;28;20214;-83
2023/03/03 10:36:40;;;;;;;41.27;31.90;;;8.00;99.90;;;;;;4975970;28;20656;-84
2023/03/03 10:39:22;;;;;;;37.87;30.77;;;8.00;99.90;;;;;;4973806;28;20206;-84
2023/03/03 10:42:11;;;;;;;39.40;31.20;;;8.00;99.90;;;;;;4973998;28;20236;-84
2023/03/03 10:45:07;;;;;;;39.33;31.97;;;8.10;99.90;;;;;;4975560;28;20213;-82
2023/03/03 10:47:58;;;;;;;43.00;32.57;;;8.10;99.90;;;;;;4973805;28;20261;-83
2023/03/03 10:50:39;;;;;;;41.97;30.60;;;8.10;99.90;;;;;;4973189;28;20293;-82
2023/03/03 10:53:22;;;;;;;38.47;29.83;;;8.10;99.90;;;;;;4973944;28;20220;-82
2023/03/03 10:55:57;;;;;;;36.97;30.20;;;8.10;99.90;;;;;;4974804;28;20264;-83
2023/03/03 10:58:46;;;;;;;41.97;31.57;;;8.20;99.90;;;;;;4972833;28;20233;-83
2023/03/03 11:01:22;;;;;;;41.27;30.20;;;8.60;99.90;;;;;;4973050;28;20228;-83
2023/03/03 11:04:34;;;;;;;46.90;33.13;;;8.80;99.90;;;;;;4975229;28;20270;-82
2023/03/03 11:07:07;;;;;;;40.13;31.83;;;8.90;99.90;;;;;;4971696;28;20213;-84
2023/03/03 11:24:46;;;;;;;40.53;32.00;;;9.00;99.90;;;;;;4894999;29;20217;-79
2023/03/03 11:27:23;;;;;;;42.20;30.63;;;9.00;99.90;;;;;;4932836;29;20199;-80
2023/03/03 11:30:02;;;;;;;39.40;32.40;;;9.10;99.90;;;;;;4945017;28;20587;-80
2023/03/03 11:32:40;;;;;;;38.50;30.20;;;8.90;99.90;;;;;;4974973;28;20213;-79
2023/03/03 11:35:23;;;;;;;36.10;29.07;;;8.80;99.90;;;;;;4975339;28;20225;-79
2023/03/03 11:37:58;;;;;;;40.33;30.47;;;9.00;99.90;;;;;;4974391;28;20668;-80
2023/03/03 11:40:32;;;;;;;37.13;29.83;;;9.00;99.90;;;;;;4973268;28;20210;-81
2023/03/03 11:43:06;;;;;;;44.03;34.37;;;9.20;99.90;;;;;;4967298;28;20223;-79
2023/03/03 11:45:41;;;;;;;38.93;32.70;;;9.10;99.90;;;;;;4973514;28;20248;-79
2023/03/03 11:48:14;;;;;;;33.57;29.47;;;9.00;99.90;;;;;;4976230;28;20201;-79
2023/03/03 11:50:49;;;;;;;40.93;32.23;;;8.90;99.90;;;;;;4974618;28;20237;-78
2023/03/03 11:53:32;;;;;;;39.27;30.30;;;8.80;99.90;;;;;;4974754;28;20213;-79
2023/03/03 11:56:10;;;;;;;38.60;30.83;;;8.80;99.90;;;;;;4974510;28;20204;-80
2023/03/03 11:58:44;;;;;;;38.30;29.87;;;8.90;99.90;;;;;;4970356;28;20206;-80
2023/03/03 12:01:21;;;;;;;40.50;30.93;;;8.90;99.90;;;;;;4967159;28;20217;-79
2023/03/03 12:03:54;;;;;;;43.23;30.57;;;9.00;99.90;;;;;;4966718;28;20233;-82
2023/03/03 12:06:31;;;;;;;44.03;31.83;;;8.90;99.90;;;;;;4975514;28;20202;-79
2023/03/03 12:09:18;;;;;;;40.27;32.50;;;8.90;99.90;;;;;;4973238;28;20221;-80
2023/03/03 12:11:53;;;;;;;38.10;31.10;;;8.90;99.90;;;;;;4978859;28;20213;-79
2023/03/03 12:14:35;;;;;;;45.03;31.30;;;9.10;99.90;;;;;;4978628;28;20202;-78
2023/03/03 12:17:06;;;;;;;36.77;29.30;;;9.20;99.90;;;;;;4977882;28;20208;-79
2023/03/03 12:19:40;;;;;;;39.37;30.77;;;9.40;99.90;;;;;;4972384;28;20199;-79
2023/03/03 12:22:22;;;;;;;38.30;29.20;;;9.60;99.90;;;;;;4978353;28;20226;-81
2023/03/03 12:25:04;;;;;;;35.97;29.53;;;9.60;99.90;;;;;;4977060;28;20237;-79
2023/03/03 12:27:42;;;;;;;34.43;27.53;;;9.70;99.90;;;;;;4970737;28;20206;-79
2023/03/03 12:30:18;;;;;;;37.80;29.07;;;9.70;99.90;;;;;;4982091;28;20225;-81
2023/03/03 12:33:00;;;;;;;34.03;28.27;;;9.80;99.90;;;;;;4983326;28;20232;-81
2023/03/03 12:35:33;;;;;;;37.30;29.57;;;9.80;99.90;;;;;;5012674;28;20205;-81
2023/03/03 12:38:10;;;;;;;40.33;31.03;;;9.80;99.90;;;;;;5006668;28;20206;-83
2023/03/03 12:40:44;;;;;;;37.73;30.33;;;9.70;99.90;;;;;;4979676;28;20454;-80
2023/03/03 12:43:29;;;;;;;38.50;29.03;;;9.70;99.90;;;;;;4980882;28;20218;-80
2023/03/03 12:46:04;;;;;;;34.27;29.03;;;9.80;99.90;;;;;;4980899;28;20202;-82
2023/03/03 12:48:40;;;;;;;39.13;29.67;;;9.90;99.90;;;;;;4980561;28;20198;-82
2023/03/03 12:51:16;;;;;;;33.83;28.33;;;10.10;99.90;;;;;;4979371;28;20237;-79
2023/03/03 12:53:58;;;;;;;38.70;31.73;;;10.10;99.90;;;;;;4976373;28;20191;-80
2023/03/03 12:56:30;;;;;;;38.63;31.03;;;9.90;99.90;;;;;;4976647;28;20198;-80
2023/03/03 12:59:04;;;;;;;33.53;29.87;;;9.90;99.90;;;;;;4977141;28;20712;-78
2023/03/03 13:01:48;;;;;;;40.13;30.23;;;9.90;99.90;;;;;;4978628;28;20529;-79
2023/03/03 13:04:29;;;;;;;40.73;31.40;;;9.90;99.90;;;;;;4973849;28;20273;-78
2023/03/03 13:07:04;;;;;;;39.93;31.73;;;10.00;99.90;;;;;;4974944;28;20676;-78
2023/03/03 13:09:43;;;;;;;34.53;28.90;;;10.10;99.90;;;;;;4975527;28;20735;-79
2023/03/03 13:12:30;;;;;;;33.67;28.13;;;10.10;99.90;;;;;;4974681;28;20221;-79
2023/03/03 13:15:04;;;;;;;35.03;28.83;;;10.10;99.90;;;;;;4974823;28;20206;-78
2023/03/03 13:17:38;;;;;;;36.03;30.33;;;10.00;99.90;;;;;;4974952;28;20206;-78
2023/03/03 13:20:16;;;;;;;35.87;29.53;;;10.00;99.90;;;;;;4973661;28;20216;-78
2023/03/03 13:22:50;;;;;;;41.57;30.70;;;10.00;99.90;;;;;;4970487;28;20265;-81
2023/03/03 13:25:39;;;;;;;39.47;32.00;;;10.00;99.90;;;;;;4973728;28;20570;-79
2023/03/03 13:28:13;;;;;;;37.97;30.97;;;9.90;99.90;;;;;;4980709;28;20287;-83
2023/03/03 13:30:47;;;;;;;38.63;30.83;;;9.90;99.90;;;;;;4979394;28;20606;-83
2023/03/03 13:33:19;;;;;;;33.00;29.13;;;9.80;99.90;;;;;;4975338;28;20198;-77
2023/03/03 13:35:50;;;;;;;37.87;30.60;;;9.90;99.90;;;;;;4975561;28;20261;-84
2023/03/03 13:38:22;;;;;;;34.17;30.58;;;9.90;99.90;;;;;;4973516;28;20446;-79
2023/03/03 13:40:55;;;;;;;42.73;32.87;;;10.10;99.90;;;;;;4969314;28;20228;-81
2023/03/03 13:43:26;;;;;;;36.40;30.77;;;10.10;99.90;;;;;;4969187;28;20626;-80
2023/03/03 13:46:05;;;;;;;37.83;32.33;;;10.10;99.90;;;;;;4975765;28;20210;-80
2023/03/03 13:48:43;;;;;;;37.40;29.17;;;10.20;99.90;;;;;;4972019;28;20195;-81
2023/03/03 13:51:21;;;;;;;38.93;31.07;;;10.40;99.90;;;;;;4975504;28;20227;-81
2023/03/03 13:53:55;;;;;;;33.87;27.83;;;10.40;99.90;;;;;;4976749;28;20298;-82
2023/03/03 13:56:41;;;;;;;37.93;30.67;;;10.50;99.90;;;;;;4972333;28;20266;-82
2023/03/03 13:59:21;;;;;;;38.37;30.13;;;10.30;99.90;;;;;;4975931;28;20742;-82
2023/03/03 14:01:57;;;;;;;36.00;30.13;;;10.30;99.90;;;;;;4976235;28;20244;-82
2023/03/03 14:04:39;;;;;;;34.20;30.30;;;10.20;99.90;;;;;;4975402;28;20257;-81
2023/03/03 14:07:14;;;;;;;37.47;30.27;;;10.30;99.90;;;;;;4974108;28;20204;-79
2023/03/03 14:09:56;;;;;;;33.60;28.47;;;10.40;99.90;;;;;;4976959;28;20199;-81
2023/03/03 14:12:27;;;;;;;31.03;27.63;;;10.40;99.90;;;;;;4968119;28;20243;-81
2023/03/03 14:15:04;;;;;;;30.47;26.53;;;10.40;99.90;;;;;;4974891;28;20203;-82
2023/03/03 14:17:39;;;;;;;36.03;28.13;;;10.40;99.90;;;;;;4968700;28;20329;-81
2023/03/03 14:20:19;;;;;;;36.73;30.30;;;10.30;99.90;;;;;;4976740;28;20196;-82
2023/03/03 14:22:52;;;;;;;36.43;30.50;;;10.20;99.90;;;;;;4976173;28;20222;-82
2023/03/03 14:25:19;;;;;;;34.73;29.13;;;10.30;99.90;;;;;;4976206;28;20222;-79
2023/03/03 14:28:09;;;;;;;36.37;31.53;;;10.20;99.90;;;;;;4972863;28;20665;-79
2023/03/03 14:30:38;;;;;;;39.80;31.23;;;10.20;99.90;;;;;;4970347;28;20229;-81
2023/03/03 14:33:20;;;;;;;39.83;30.87;;;10.20;99.90;;;;;;4973608;28;20304;-80
2023/03/03 14:36:00;;;;;;;34.90;29.97;;;10.00;99.90;;;;;;4971305;28;20200;-80
2023/03/03 14:38:41;;;;;;;32.53;27.83;;;9.90;99.90;;;;;;4974326;28;20577;-79
2023/03/03 14:41:15;;;;;;;30.83;26.97;;;9.90;99.90;;;;;;4975402;28;20276;-79
2023/03/03 14:43:45;;;;;;;32.17;27.57;;;9.80;99.90;;;;;;4969598;28;20241;-82
2023/03/03 14:46:33;;;;;;;31.80;26.70;;;9.70;99.90;;;;;;4968773;28;20206;-83
2023/03/03 14:49:03;;;;;;;33.70;27.93;;;9.60;99.90;;;;;;4972682;28;20205;-82
2023/03/03 14:51:39;;;;;;;35.93;27.97;;;9.50;99.90;;;;;;4974850;28;20218;-83
2023/03/03 14:54:14;;;;;;;38.20;33.05;;;9.50;99.90;;;;;;4977104;28;20434;-86
2023/03/03 14:56:56;;;;;;;35.23;28.97;;;9.50;99.90;;;;;;4977839;28;20208;-85
2023/03/03 14:59:26;;;;;;;35.10;28.70;;;9.50;99.90;;;;;;4981524;28;20228;-86
2023/03/03 15:02:00;;;;;;;36.70;29.50;;;9.50;99.90;;;;;;4979503;28;20233;-81
2023/03/03 15:04:29;;;;;;;45.47;32.33;;;9.40;99.90;;;;;;4993373;28;20209;-82
2023/03/03 15:06:57;;;;;;;39.23;30.63;;;9.30;99.90;;;;;;4974579;28;20206;-81
2023/03/03 15:09:34;;;;;;;39.80;29.33;;;9.20;99.90;;;;;;4974424;28;20198;-82
2023/03/03 15:12:02;;;;;;;37.37;28.40;;;9.10;99.90;;;;;;4976670;28;20225;-85
2023/03/03 15:14:32;;;;;;;36.03;28.67;;;9.00;99.90;;;;;;4974085;28;20252;-78
2023/03/03 15:17:18;;;;;;;40.00;29.07;;;9.00;99.90;;;;;;4976785;28;20297;-79
2023/03/03 15:19:54;;;;;;;35.40;27.43;;;9.00;99.90;;;;;;4974665;28;20260;-79
2023/03/03 15:22:35;;;;;;;38.80;29.13;;;8.90;99.90;;;;;;4967051;28;20777;-78
2023/03/03 15:25:08;;;;;;;32.47;27.43;;;8.90;99.90;;;;;;4974997;28;20221;-79
2023/03/03 15:27:39;;;;;;;33.90;28.40;;;8.80;99.90;;;;;;4973879;28;20197;-79
2023/03/03 15:30:18;;;;;;;31.77;26.00;;;8.80;99.90;;;;;;4971915;28;20212;-80
2023/03/03 15:32:51;;;;;;;30.73;26.47;;;8.80;99.90;;;;;;4967864;28;20226;-79
2023/03/03 15:35:31;;;;;;;28.20;24.97;;;8.80;99.90;;;;;;4971390;28;20205;-79
2023/03/03 15:38:04;;;;;;;32.03;26.13;;;8.70;99.90;;;;;;4972079;28;20288;-79
2023/03/03 15:40:37;;;;;;;35.37;27.20;;;8.70;99.90;;;;;;4976658;28;20607;-79
2023/03/03 15:43:13;;;;;;;30.43;25.57;;;8.60;99.90;;;;;;4980522;28;20207;-84
2023/03/03 15:45:48;;;;;;;28.57;23.30;;;8.60;99.90;;;;;;4976050;28;20202;-81
2023/03/03 15:48:37;;;;;;;28.03;24.03;;;8.60;99.90;;;;;;4981473;28;20220;-83
2023/03/03 15:51:22;;;;;;;29.20;24.13;;;8.60;99.90;;;;;;4978055;28;20226;-82
2023/03/03 15:54:04;;;;;;;27.43;23.40;;;8.60;99.90;;;;;;4980799;28;20202;-81
2023/03/03 15:56:41;;;;;;;30.37;25.50;;;8.60;99.90;;;;;;4981059;28;20237;-82
2023/03/03 15:59:42;;;;;;;31.03;24.77;;;8.60;99.90;;;;;;4978670;28;20209;-79
2023/03/03 16:02:16;;;;;;;31.23;26.97;;;8.50;99.90;;;;;;4976808;28;20260;-79
2023/03/03 16:04:52;;;;;;;28.80;23.77;;;8.50;99.90;;;;;;4979603;28;20230;-84
2023/03/03 16:07:31;;;;;;;30.07;24.90;;;8.50;99.90;;;;;;4983186;28;20210;-86
2023/03/03 16:10:10;;;;;;;31.07;25.57;;;8.50;99.90;;;;;;4982074;28;20288;-85
2023/03/03 16:12:47;;;;;;;27.77;23.87;;;8.50;99.90;;;;;;4982496;28;20228;-85
2023/03/03 16:15:45;;;;;;;28.27;23.07;;;8.50;99.90;;;;;;4977447;28;20234;-87
2023/03/03 16:18:19;;;;;;;27.80;24.53;;;8.40;99.90;;;;;;4980846;28;20212;-87
2023/03/03 16:20:58;;;;;;;24.53;21.70;;;8.40;99.90;;;;;;4979840;28;20237;-80
2023/03/03 16:23:39;;;;;;;24.87;22.23;;;8.30;99.90;;;;;;4979474;28;20283;-78
2023/03/03 16:26:13;;;;;;;22.37;19.47;;;8.30;99.90;;;;;;4977738;28;20205;-82
2023/03/03 16:29:11;;;;;;;22.47;20.07;;;8.20;99.90;;;;;;4978848;28;20202;-80
2023/03/03 16:31:45;;;;;;;22.57;20.20;;;8.20;99.90;;;;;;4978102;28;20287;-79
2023/03/03 16:34:18;;;;;;;31.87;24.67;;;8.10;99.90;;;;;;4979224;28;20626;-80
2023/03/03 16:37:01;;;;;;;24.30;21.70;;;8.00;99.90;;;;;;4976615;28;20208;-81
2023/03/03 16:40:12;;;;;;;23.17;20.77;;;7.90;99.90;;;;;;4974867;28;20209;-81
2023/03/03 16:42:44;;;;;;;22.13;19.83;;;7.80;99.90;;;;;;4975652;28;20221;-80
2023/03/03 16:45:24;;;;;;;24.93;21.17;;;7.80;99.90;;;;;;4973524;28;20257;-84